sensor_id;sensor_type;location;lat;lon;timestamp;temperature;humidity
56103;DHT22;41970;48.774;9.280;2023-05-20T00:00:28;12.60;99.90
56103;DHT22;41970;48.774;9.280;2023-05-20T00:02:54;12.70;99.90
56103;DHT22;41970;48.774;9.280;2023-05-20T00:05:20;12.90;99.90
56103;DHT22;41970;48.774;9.280;2023-05-20T00:07:45;12.90;99.90
56103;DHT22;41970;48.774;9.280;2023-05-20T00:10:11;12.90;99.90
56103;DHT22;41970;48.774;9.280;2023-05-20T00:12:38;12.80;99.90
56103;DHT22;41970;48.774;9.280;2023-05-20T00:15:04;12.80;99.90
56103;DHT22;41970;48.774;9.280;2023-05-20T00:17:30;12.80;99.90
56103;DHT22;41970;48.774;9.280;2023-05-20T00:19:56;12.70;99.90
56103;DHT22;41970;48.774;9.280;2023-05-20T00:22:22;12.70;99.90
56103;DHT22;41970;48.774;9.280;2023-05-20T00:24:48;12.70;99.90
56103;DHT22;41970;48.774;9.280;2023-05-20T00:27:13;12.80;99.90
56103;DHT22;41970;48.774;9.280;2023-05-20T00:29:39;12.90;99.90
56103;DHT22;41970;48.774;9.280;2023-05-20T00:32:05;13.10;99.90
56103;DHT22;41970;48.774;9.280;2023-05-20T00:34:31;13.10;99.90
56103;DHT22;41970;48.774;9.280;2023-05-20T00:36:57;13.10;99.90
56103;DHT22;41970;48.774;9.280;2023-05-20T00:39:23;13.00;99.90
56103;DHT22;41970;48.774;9.280;2023-05-20T00:41:48;13.00;99.90
56103;DHT22;41970;48.774;9.280;2023-05-20T00:44:14;13.00;99.90
56103;DHT22;41970;48.774;9.280;2023-05-20T00:46:40;13.00;99.90
56103;DHT22;41970;48.774;9.280;2023-05-20T00:49:06;13.10;99.90
56103;DHT22;41970;48.774;9.280;2023-05-20T00:51:33;13.10;99.90
56103;DHT22;41970;48.774;9.280;2023-05-20T00:53:58;12.90;99.90
56103;DHT22;41970;48.774;9.280;2023-05-20T00:56:25;12.90;99.90
56103;DHT22;41970;48.774;9.280;2023-05-20T00:58:51;12.90;99.90
56103;DHT22;41970;48.774;9.280;2023-05-20T01:01:17;12.80;99.90
56103;DHT22;41970;48.774;9.280;2023-05-20T01:03:43;12.80;99.90
56103;DHT22;41970;48.774;9.280;2023-05-20T01:06:09;12.80;99.90
56103;DHT22;41970;48.774;9.280;2023-05-20T01:08:34;12.90;99.90
56103;DHT22;41970;48.774;9.280;2023-05-20T01:11:05;12.90;99.90
56103;DHT22;41970;48.774;9.280;2023-05-20T01:13:40;13.00;99.90
56103;DHT22;41970;48.774;9.280;2023-05-20T01:16:08;13.20;99.90
56103;DHT22;41970;48.774;9.280;2023-05-20T01:18:35;13.10;99.90
56103;DHT22;41970;48.774;9.280;2023-05-20T01:21:02;13.10;99.90
56103;DHT22;41970;48.774;9.280;2023-05-20T01:23:36;13.20;99.90
56103;DHT22;41970;48.774;9.280;2023-05-20T01:26:03;13.30;99.90
56103;DHT22;41970;48.774;9.280;2023-05-20T01:28:32;13.20;99.90
56103;DHT22;41970;48.774;9.280;2023-05-20T01:31:00;13.20;99.90
56103;DHT22;41970;48.774;9.280;2023-05-20T01:33:28;13.20;99.90
56103;DHT22;41970;48.774;9.280;2023-05-20T01:35:54;13.10;99.90
56103;DHT22;41970;48.774;9.280;2023-05-20T01:38:22;13.10;99.90
56103;DHT22;41970;48.774;9.280;2023-05-20T01:40:49;13.10;99.90
56103;DHT22;41970;48.774;9.280;2023-05-20T01:43:16;13.10;99.90
56103;DHT22;41970;48.774;9.280;2023-05-20T01:45:43;13.10;99.90
56103;DHT22;41970;48.774;9.280;2023-05-20T01:48:10;13.00;99.90
56103;DHT22;41970;48.774;9.280;2023-05-20T01:50:39;13.10;99.90
56103;DHT22;41970;48.774;9.280;2023-05-20T01:53:05;13.00;99.90
56103;DHT22;41970;48.774;9.280;2023-05-20T01:55:34;12.70;99.90
56103;DHT22;41970;48.774;9.280;2023-05-20T01:58:00;12.50;99.90
56103;DHT22;41970;48.774;9.280;2023-05-20T02:00:26;12.40;99.90
56103;DHT22;41970;48.774;9.280;2023-05-20T02:02:52;12.40;99.90
56103;DHT22;41970;48.774;9.280;2023-05-20T02:05:18;12.40;99.90
56103;DHT22;41970;48.774;9.280;2023-05-20T02:07:43;12.50;99.90
56103;DHT22;41970;48.774;9.280;2023-05-20T02:10:09;12.60;99.90
56103;DHT22;41970;48.774;9.280;2023-05-20T02:12:36;12.50;99.90
56103;DHT22;41970;48.774;9.280;2023-05-20T02:15:02;12.40;99.90
56103;DHT22;41970;48.774;9.280;2023-05-20T02:17:28;12.30;99.90
56103;DHT22;41970;48.774;9.280;2023-05-20T02:19:55;12.20;99.90
56103;DHT22;41970;48.774;9.280;2023-05-20T02:22:21;12.10;99.90
56103;DHT22;41970;48.774;9.280;2023-05-20T02:24:47;12.00;99.90
56103;DHT22;41970;48.774;9.280;2023-05-20T02:27:13;11.90;99.90
56103;DHT22;41970;48.774;9.280;2023-05-20T02:29:39;11.90;99.90
56103;DHT22;41970;48.774;9.280;2023-05-20T02:32:05;11.80;99.90
56103;DHT22;41970;48.774;9.280;2023-05-20T02:34:31;11.60;99.90
56103;DHT22;41970;48.774;9.280;2023-05-20T02:36:57;11.50;99.90
56103;DHT22;41970;48.774;9.280;2023-05-20T02:39:23;11.50;99.90
56103;DHT22;41970;48.774;9.280;2023-05-20T02:41:48;11.40;99.90
56103;DHT22;41970;48.774;9.280;2023-05-20T02:44:14;11.40;99.90
56103;DHT22;41970;48.774;9.280;2023-05-20T02:46:41;11.40;99.90
56103;DHT22;41970;48.774;9.280;2023-05-20T02:49:06;11.40;99.90
56103;DHT22;41970;48.774;9.280;2023-05-20T02:51:32;11.40;99.90
56103;DHT22;41970;48.774;9.280;2023-05-20T02:53:58;11.40;99.90
56103;DHT22;41970;48.774;9.280;2023-05-20T02:56:23;11.50;99.90
56103;DHT22;41970;48.774;9.280;2023-05-20T02:58:49;11.40;99.90
56103;DHT22;41970;48.774;9.280;2023-05-20T03:01:15;11.40;99.90
56103;DHT22;41970;48.774;9.280;2023-05-20T03:03:41;11.40;99.90
56103;DHT22;41970;48.774;9.280;2023-05-20T03:06:07;11.40;99.90
56103;DHT22;41970;48.774;9.280;2023-05-20T03:08:33;11.30;99.90
56103;DHT22;41970;48.774;9.280;2023-05-20T03:11:00;11.30;99.90
56103;DHT22;41970;48.774;9.280;2023-05-20T03:13:26;11.40;99.90
56103;DHT22;41970;48.774;9.280;2023-05-20T03:15:52;11.50;99.90
56103;DHT22;41970;48.774;9.280;2023-05-20T03:18:18;11.60;99.90
56103;DHT22;41970;48.774;9.280;2023-05-20T03:20:45;11.70;99.90
56103;DHT22;41970;48.774;9.280;2023-05-20T03:23:11;11.70;99.90
56103;DHT22;41970;48.774;9.280;2023-05-20T03:25:37;11.70;99.90
56103;DHT22;41970;48.774;9.280;2023-05-20T03:28:04;11.90;99.90
56103;DHT22;41970;48.774;9.280;2023-05-20T03:30:34;11.90;99.90
56103;DHT22;41970;48.774;9.280;2023-05-20T03:32:59;11.80;99.90
56103;DHT22;41970;48.774;9.280;2023-05-20T03:35:27;11.70;99.90
56103;DHT22;41970;48.774;9.280;2023-05-20T03:37:53;11.50;99.90
56103;DHT22;41970;48.774;9.280;2023-05-20T03:40:19;11.30;99.90
56103;DHT22;41970;48.774;9.280;2023-05-20T03:42:45;11.10;99.90
56103;DHT22;41970;48.774;9.280;2023-05-20T03:45:11;11.00;99.90
56103;DHT22;41970;48.774;9.280;2023-05-20T03:47:37;10.90;99.90
56103;DHT22;41970;48.774;9.280;2023-05-20T03:50:03;10.80;99.90
56103;DHT22;41970;48.774;9.280;2023-05-20T03:52:29;10.80;99.90
56103;DHT22;41970;48.774;9.280;2023-05-20T03:54:55;10.90;99.90
56103;DHT22;41970;48.774;9.280;2023-05-20T03:57:21;10.90;99.90
56103;DHT22;41970;48.774;9.280;2023-05-20T03:59:48;11.00;99.90
56103;DHT22;41970;48.774;9.280;2023-05-20T04:02:13;11.10;99.90
56103;DHT22;41970;48.774;9.280;2023-05-20T04:04:39;11.10;99.90
56103;DHT22;41970;48.774;9.280;2023-05-20T04:07:08;11.20;99.90
56103;DHT22;41970;48.774;9.280;2023-05-20T04:09:34;11.10;99.90
56103;DHT22;41970;48.774;9.280;2023-05-20T04:12:00;11.10;99.90
56103;DHT22;41970;48.774;9.280;2023-05-20T04:14:26;11.20;99.90
56103;DHT22;41970;48.774;9.280;2023-05-20T04:16:51;11.30;99.90
56103;DHT22;41970;48.774;9.280;2023-05-20T04:19:18;11.40;99.90
56103;DHT22;41970;48.774;9.280;2023-05-20T04:21:44;11.50;99.90
56103;DHT22;41970;48.774;9.280;2023-05-20T04:24:10;11.50;99.90
56103;DHT22;41970;48.774;9.280;2023-05-20T04:26:37;11.60;99.90
56103;DHT22;41970;48.774;9.280;2023-05-20T04:29:03;11.60;99.90
56103;DHT22;41970;48.774;9.280;2023-05-20T04:31:29;11.60;99.90
56103;DHT22;41970;48.774;9.280;2023-05-20T04:33:56;11.60;99.90
56103;DHT22;41970;48.774;9.280;2023-05-20T04:36:22;11.70;99.90
56103;DHT22;41970;48.774;9.280;2023-05-20T04:38:56;11.80;99.90
56103;DHT22;41970;48.774;9.280;2023-05-20T04:41:22;11.90;99.90
56103;DHT22;41970;48.774;9.280;2023-05-20T04:43:48;11.90;99.90
56103;DHT22;41970;48.774;9.280;2023-05-20T04:46:14;11.90;99.90
56103;DHT22;41970;48.774;9.280;2023-05-20T04:48:41;11.90;99.90
56103;DHT22;41970;48.774;9.280;2023-05-20T04:51:08;11.80;99.90
56103;DHT22;41970;48.774;9.280;2023-05-20T04:53:34;11.80;99.90
56103;DHT22;41970;48.774;9.280;2023-05-20T04:56:00;11.80;99.90
56103;DHT22;41970;48.774;9.280;2023-05-20T04:58:26;11.80;99.90
56103;DHT22;41970;48.774;9.280;2023-05-20T05:00:54;11.80;99.90
56103;DHT22;41970;48.774;9.280;2023-05-20T05:03:20;12.00;99.90
56103;DHT22;41970;48.774;9.280;2023-05-20T05:05:46;12.00;99.90
56103;DHT22;41970;48.774;9.280;2023-05-20T05:08:12;12.10;99.90
56103;DHT22;41970;48.774;9.280;2023-05-20T05:10:38;12.30;99.90
56103;DHT22;41970;48.774;9.280;2023-05-20T05:13:04;12.50;99.90
56103;DHT22;41970;48.774;9.280;2023-05-20T05:15:30;12.70;99.90
56103;DHT22;41970;48.774;9.280;2023-05-20T05:17:56;12.80;99.90
56103;DHT22;41970;48.774;9.280;2023-05-20T05:20:21;12.90;99.90
56103;DHT22;41970;48.774;9.280;2023-05-20T05:22:47;13.00;99.90
56103;DHT22;41970;48.774;9.280;2023-05-20T05:25:15;13.00;99.90
56103;DHT22;41970;48.774;9.280;2023-05-20T05:27:40;13.10;99.90
56103;DHT22;41970;48.774;9.280;2023-05-20T05:30:07;13.10;99.90
56103;DHT22;41970;48.774;9.280;2023-05-20T05:32:33;13.20;99.90
56103;DHT22;41970;48.774;9.280;2023-05-20T05:34:59;13.40;99.90
56103;DHT22;41970;48.774;9.280;2023-05-20T05:37:25;13.60;99.90
56103;DHT22;41970;48.774;9.280;2023-05-20T05:39:51;13.70;99.90
56103;DHT22;41970;48.774;9.280;2023-05-20T05:42:17;13.90;99.90
56103;DHT22;41970;48.774;9.280;2023-05-20T05:44:42;13.90;99.90
56103;DHT22;41970;48.774;9.280;2023-05-20T05:47:09;14.00;99.90
56103;DHT22;41970;48.774;9.280;2023-05-20T05:49:35;14.00;99.90
56103;DHT22;41970;48.774;9.280;2023-05-20T05:52:01;14.00;99.90
56103;DHT22;41970;48.774;9.280;2023-05-20T05:54:26;14.00;99.90
56103;DHT22;41970;48.774;9.280;2023-05-20T05:56:52;14.00;99.90
56103;DHT22;41970;48.774;9.280;2023-05-20T05:59:21;14.10;99.90
56103;DHT22;41970;48.774;9.280;2023-05-20T06:01:46;14.20;99.90
56103;DHT22;41970;48.774;9.280;2023-05-20T06:04:12;14.20;99.90
56103;DHT22;41970;48.774;9.280;2023-05-20T06:06:39;14.30;99.90
56103;DHT22;41970;48.774;9.280;2023-05-20T06:09:05;14.30;99.90
56103;DHT22;41970;48.774;9.280;2023-05-20T06:11:30;14.40;99.90
56103;DHT22;41970;48.774;9.280;2023-05-20T06:13:56;14.50;99.90
56103;DHT22;41970;48.774;9.280;2023-05-20T06:16:23;14.40;99.90
56103;DHT22;41970;48.774;9.280;2023-05-20T06:18:48;14.40;99.90
56103;DHT22;41970;48.774;9.280;2023-05-20T06:21:21;14.40;99.90
56103;DHT22;41970;48.774;9.280;2023-05-20T06:23:47;14.40;99.90
56103;DHT22;41970;48.774;9.280;2023-05-20T06:26:13;14.50;99.90
56103;DHT22;41970;48.774;9.280;2023-05-20T06:28:38;14.60;99.90
56103;DHT22;41970;48.774;9.280;2023-05-20T06:31:04;14.60;99.90
56103;DHT22;41970;48.774;9.280;2023-05-20T06:33:31;14.60;99.90
56103;DHT22;41970;48.774;9.280;2023-05-20T06:35:57;14.60;99.90
56103;DHT22;41970;48.774;9.280;2023-05-20T06:38:24;14.70;99.90
56103;DHT22;41970;48.774;9.280;2023-05-20T06:40:50;14.70;99.90
56103;DHT22;41970;48.774;9.280;2023-05-20T06:43:18;14.80;99.90
56103;DHT22;41970;48.774;9.280;2023-05-20T06:45:44;14.90;99.90
56103;DHT22;41970;48.774;9.280;2023-05-20T06:48:10;15.00;99.90
56103;DHT22;41970;48.774;9.280;2023-05-20T06:50:36;15.10;99.90
56103;DHT22;41970;48.774;9.280;2023-05-20T06:53:02;15.30;99.90
56103;DHT22;41970;48.774;9.280;2023-05-20T06:55:28;15.40;99.90
56103;DHT22;41970;48.774;9.280;2023-05-20T06:57:54;15.60;99.90
56103;DHT22;41970;48.774;9.280;2023-05-20T07:00:23;15.60;99.90
56103;DHT22;41970;48.774;9.280;2023-05-20T07:02:49;15.50;99.90
56103;DHT22;41970;48.774;9.280;2023-05-20T07:05:15;15.50;99.90
56103;DHT22;41970;48.774;9.280;2023-05-20T07:07:40;15.60;99.90
56103;DHT22;41970;48.774;9.280;2023-05-20T07:10:07;15.70;99.90
56103;DHT22;41970;48.774;9.280;2023-05-20T07:12:33;15.70;99.90
56103;DHT22;41970;48.774;9.280;2023-05-20T07:15:00;15.50;99.90
56103;DHT22;41970;48.774;9.280;2023-05-20T07:17:26;15.50;99.90
56103;DHT22;41970;48.774;9.280;2023-05-20T07:19:54;15.50;99.90
56103;DHT22;41970;48.774;9.280;2023-05-20T07:22:21;15.80;99.90
56103;DHT22;41970;48.774;9.280;2023-05-20T07:24:47;16.30;99.90
56103;DHT22;41970;48.774;9.280;2023-05-20T07:27:12;16.60;99.90
56103;DHT22;41970;48.774;9.280;2023-05-20T07:29:38;16.90;99.90
56103;DHT22;41970;48.774;9.280;2023-05-20T07:32:04;17.00;99.90
56103;DHT22;41970;48.774;9.280;2023-05-20T07:34:30;17.40;99.90
56103;DHT22;41970;48.774;9.280;2023-05-20T07:36:57;17.80;99.90
56103;DHT22;41970;48.774;9.280;2023-05-20T07:39:23;18.00;99.90
56103;DHT22;41970;48.774;9.280;2023-05-20T07:41:49;18.00;99.90
56103;DHT22;41970;48.774;9.280;2023-05-20T07:44:14;17.80;99.90
56103;DHT22;41970;48.774;9.280;2023-05-20T07:46:43;17.40;99.90
56103;DHT22;41970;48.774;9.280;2023-05-20T07:49:09;17.60;99.90
56103;DHT22;41970;48.774;9.280;2023-05-20T07:51:35;17.80;99.90
56103;DHT22;41970;48.774;9.280;2023-05-20T07:54:01;17.90;99.90
56103;DHT22;41970;48.774;9.280;2023-05-20T07:56:28;18.10;99.90
56103;DHT22;41970;48.774;9.280;2023-05-20T07:58:58;18.20;99.90
56103;DHT22;41970;48.774;9.280;2023-05-20T08:01:25;18.50;99.90
56103;DHT22;41970;48.774;9.280;2023-05-20T08:03:51;18.90;99.90
56103;DHT22;41970;48.774;9.280;2023-05-20T08:06:17;19.30;99.90
56103;DHT22;41970;48.774;9.280;2023-05-20T08:08:45;19.30;99.90
56103;DHT22;41970;48.774;9.280;2023-05-20T08:11:11;19.30;99.90
56103;DHT22;41970;48.774;9.280;2023-05-20T08:13:37;19.40;99.90
56103;DHT22;41970;48.774;9.280;2023-05-20T08:16:03;19.00;99.90
56103;DHT22;41970;48.774;9.280;2023-05-20T08:18:31;19.50;99.90
56103;DHT22;41970;48.774;9.280;2023-05-20T08:20:58;19.70;99.90
56103;DHT22;41970;48.774;9.280;2023-05-20T08:23:24;19.00;99.90
56103;DHT22;41970;48.774;9.280;2023-05-20T08:25:50;18.80;99.90
56103;DHT22;41970;48.774;9.280;2023-05-20T08:28:16;18.50;99.90
56103;DHT22;41970;48.774;9.280;2023-05-20T08:30:42;18.30;99.90
56103;DHT22;41970;48.774;9.280;2023-05-20T08:33:07;18.20;99.90
56103;DHT22;41970;48.774;9.280;2023-05-20T08:35:35;18.00;99.90
56103;DHT22;41970;48.774;9.280;2023-05-20T08:38:04;18.20;99.90
56103;DHT22;41970;48.774;9.280;2023-05-20T08:40:29;18.40;99.90
56103;DHT22;41970;48.774;9.280;2023-05-20T08:42:56;18.50;99.90
56103;DHT22;41970;48.774;9.280;2023-05-20T08:45:24;18.90;99.90
56103;DHT22;41970;48.774;9.280;2023-05-20T08:47:53;19.10;99.90
56103;DHT22;41970;48.774;9.280;2023-05-20T08:50:19;19.20;99.90
56103;DHT22;41970;48.774;9.280;2023-05-20T08:52:47;19.30;99.90
56103;DHT22;41970;48.774;9.280;2023-05-20T08:55:16;19.40;99.90
56103;DHT22;41970;48.774;9.280;2023-05-20T08:57:50;19.00;99.90
56103;DHT22;41970;48.774;9.280;2023-05-20T09:00:16;19.20;99.90
56103;DHT22;41970;48.774;9.280;2023-05-20T09:02:44;19.50;99.90
56103;DHT22;41970;48.774;9.280;2023-05-20T09:05:11;19.80;99.90
56103;DHT22;41970;48.774;9.280;2023-05-20T09:07:37;20.00;99.90
56103;DHT22;41970;48.774;9.280;2023-05-20T09:10:03;20.00;99.90
56103;DHT22;41970;48.774;9.280;2023-05-20T09:12:29;19.90;99.90
56103;DHT22;41970;48.774;9.280;2023-05-20T09:14:55;20.00;99.90
56103;DHT22;41970;48.774;9.280;2023-05-20T09:17:22;20.10;99.90
56103;DHT22;41970;48.774;9.280;2023-05-20T09:19:52;20.20;99.90
56103;DHT22;41970;48.774;9.280;2023-05-20T09:22:25;20.20;99.90
56103;DHT22;41970;48.774;9.280;2023-05-20T09:24:51;20.60;99.90
56103;DHT22;41970;48.774;9.280;2023-05-20T09:27:18;20.80;99.90
56103;DHT22;41970;48.774;9.280;2023-05-20T09:29:49;20.90;99.90
56103;DHT22;41970;48.774;9.280;2023-05-20T09:32:16;20.90;99.70
56103;DHT22;41970;48.774;9.280;2023-05-20T09:34:42;20.90;99.90
56103;DHT22;41970;48.774;9.280;2023-05-20T09:37:10;21.00;99.80
56103;DHT22;41970;48.774;9.280;2023-05-20T09:40:05;21.00;99.90
56103;DHT22;41970;48.774;9.280;2023-05-20T09:42:46;20.90;99.80
56103;DHT22;41970;48.774;9.280;2023-05-20T09:45:15;20.80;99.80
56103;DHT22;41970;48.774;9.280;2023-05-20T09:47:42;20.60;99.90
56103;DHT22;41970;48.774;9.280;2023-05-20T09:50:08;20.60;99.90
56103;DHT22;41970;48.774;9.280;2023-05-20T09:52:36;20.60;99.90
56103;DHT22;41970;48.774;9.280;2023-05-20T09:55:04;20.60;99.90
56103;DHT22;41970;48.774;9.280;2023-05-20T09:57:34;20.50;99.90
56103;DHT22;41970;48.774;9.280;2023-05-20T10:00:01;20.50;99.90
56103;DHT22;41970;48.774;9.280;2023-05-20T10:02:27;20.50;99.90
56103;DHT22;41970;48.774;9.280;2023-05-20T10:04:54;20.70;99.90
56103;DHT22;41970;48.774;9.280;2023-05-20T10:20:48;21.60;99.10
56103;DHT22;41970;48.774;9.280;2023-05-20T10:23:27;21.30;99.10
56103;DHT22;41970;48.774;9.280;2023-05-20T10:25:55;21.00;99.20
56103;DHT22;41970;48.774;9.280;2023-05-20T10:28:31;21.10;99.50
56103;DHT22;41970;48.774;9.280;2023-05-20T10:30:58;21.10;99.60
56103;DHT22;41970;48.774;9.280;2023-05-20T10:33:27;21.10;99.90
56103;DHT22;41970;48.774;9.280;2023-05-20T10:35:57;21.20;99.90
56103;DHT22;41970;48.774;9.280;2023-05-20T10:38:24;21.00;99.90
56103;DHT22;41970;48.774;9.280;2023-05-20T10:40:50;20.90;99.90
56103;DHT22;41970;48.774;9.280;2023-05-20T10:43:25;20.90;99.90
56103;DHT22;41970;48.774;9.280;2023-05-20T10:45:55;21.00;99.90
56103;DHT22;41970;48.774;9.280;2023-05-20T10:48:32;21.00;98.10
56103;DHT22;41970;48.774;9.280;2023-05-20T10:50:59;20.80;98.60
56103;DHT22;41970;48.774;9.280;2023-05-20T10:53:29;20.80;99.00
56103;DHT22;41970;48.774;9.280;2023-05-20T10:56:02;21.10;98.50
56103;DHT22;41970;48.774;9.280;2023-05-20T10:58:36;21.20;98.30
56103;DHT22;41970;48.774;9.280;2023-05-20T11:01:02;21.30;98.50
56103;DHT22;41970;48.774;9.280;2023-05-20T11:03:28;21.30;98.00
56103;DHT22;41970;48.774;9.280;2023-05-20T11:05:54;21.40;98.00
56103;DHT22;41970;48.774;9.280;2023-05-20T11:08:20;21.30;98.00
56103;DHT22;41970;48.774;9.280;2023-05-20T11:10:46;21.40;97.90
56103;DHT22;41970;48.774;9.280;2023-05-20T11:13:12;21.20;98.10
56103;DHT22;41970;48.774;9.280;2023-05-20T11:15:40;21.20;98.10
56103;DHT22;41970;48.774;9.280;2023-05-20T11:18:06;21.20;98.00
56103;DHT22;41970;48.774;9.280;2023-05-20T11:20:32;21.20;97.40
56103;DHT22;41970;48.774;9.280;2023-05-20T11:23:01;21.20;96.60
56103;DHT22;41970;48.774;9.280;2023-05-20T11:25:27;20.90;96.80
56103;DHT22;41970;48.774;9.280;2023-05-20T11:27:53;20.80;97.50
56103;DHT22;41970;48.774;9.280;2023-05-20T11:30:19;21.10;97.80
56103;DHT22;41970;48.774;9.280;2023-05-20T11:33:03;21.20;98.20
56103;DHT22;41970;48.774;9.280;2023-05-20T11:35:30;21.50;97.20
56103;DHT22;41970;48.774;9.280;2023-05-20T11:38:05;21.60;97.00
56103;DHT22;41970;48.774;9.280;2023-05-20T11:40:32;21.70;97.10
56103;DHT22;41970;48.774;9.280;2023-05-20T11:43:02;21.90;97.50
56103;DHT22;41970;48.774;9.280;2023-05-20T11:45:42;21.90;97.70
56103;DHT22;41970;48.774;9.280;2023-05-20T11:48:10;21.80;96.30
56103;DHT22;41970;48.774;9.280;2023-05-20T11:50:41;21.70;96.80
56103;DHT22;41970;48.774;9.280;2023-05-20T11:53:18;21.60;96.10
56103;DHT22;41970;48.774;9.280;2023-05-20T11:55:55;21.60;96.80
56103;DHT22;41970;48.774;9.280;2023-05-20T11:58:22;21.80;96.90
56103;DHT22;41970;48.774;9.280;2023-05-20T12:00:49;22.00;96.50
56103;DHT22;41970;48.774;9.280;2023-05-20T12:03:15;22.20;96.10
56103;DHT22;41970;48.774;9.280;2023-05-20T12:05:41;22.40;95.60
56103;DHT22;41970;48.774;9.280;2023-05-20T12:08:07;22.40;95.50
56103;DHT22;41970;48.774;9.280;2023-05-20T12:10:33;22.50;95.10
56103;DHT22;41970;48.774;9.280;2023-05-20T12:13:00;22.30;95.10
56103;DHT22;41970;48.774;9.280;2023-05-20T12:15:26;22.00;95.60
56103;DHT22;41970;48.774;9.280;2023-05-20T12:17:52;22.00;95.90
56103;DHT22;41970;48.774;9.280;2023-05-20T12:20:21;22.00;95.70
56103;DHT22;41970;48.774;9.280;2023-05-20T12:22:47;22.20;95.60
56103;DHT22;41970;48.774;9.280;2023-05-20T12:25:15;22.30;96.00
56103;DHT22;41970;48.774;9.280;2023-05-20T12:27:41;22.10;94.70
56103;DHT22;41970;48.774;9.280;2023-05-20T12:30:08;22.00;95.60
56103;DHT22;41970;48.774;9.280;2023-05-20T12:32:36;22.00;95.50
56103;DHT22;41970;48.774;9.280;2023-05-20T12:35:03;22.20;95.40
56103;DHT22;41970;48.774;9.280;2023-05-20T12:37:28;22.00;95.00
56103;DHT22;41970;48.774;9.280;2023-05-20T12:39:54;22.00;95.40
56103;DHT22;41970;48.774;9.280;2023-05-20T12:42:20;21.90;95.30
56103;DHT22;41970;48.774;9.280;2023-05-20T12:44:46;22.00;95.40
56103;DHT22;41970;48.774;9.280;2023-05-20T12:47:12;21.90;95.60
56103;DHT22;41970;48.774;9.280;2023-05-20T12:49:37;22.20;96.00
56103;DHT22;41970;48.774;9.280;2023-05-20T12:52:04;22.40;95.30
56103;DHT22;41970;48.774;9.280;2023-05-20T12:54:29;22.60;95.30
56103;DHT22;41970;48.774;9.280;2023-05-20T12:56:56;22.60;95.30
56103;DHT22;41970;48.774;9.280;2023-05-20T12:59:22;22.60;94.40
56103;DHT22;41970;48.774;9.280;2023-05-20T13:01:48;22.30;94.50
56103;DHT22;41970;48.774;9.280;2023-05-20T13:04:14;22.40;95.10
56103;DHT22;41970;48.774;9.280;2023-05-20T13:06:40;22.40;94.90
56103;DHT22;41970;48.774;9.280;2023-05-20T13:09:06;22.50;95.00
56103;DHT22;41970;48.774;9.280;2023-05-20T13:11:33;22.60;94.40
56103;DHT22;41970;48.774;9.280;2023-05-20T13:13:59;22.70;93.90
56103;DHT22;41970;48.774;9.280;2023-05-20T13:16:25;22.80;94.50
56103;DHT22;41970;48.774;9.280;2023-05-20T13:18:51;22.70;93.80
56103;DHT22;41970;48.774;9.280;2023-05-20T13:21:17;22.60;94.90
56103;DHT22;41970;48.774;9.280;2023-05-20T13:23:42;22.50;94.20
56103;DHT22;41970;48.774;9.280;2023-05-20T13:26:08;22.30;94.30
56103;DHT22;41970;48.774;9.280;2023-05-20T13:28:37;22.50;94.40
56103;DHT22;41970;48.774;9.280;2023-05-20T13:31:04;22.60;93.80
56103;DHT22;41970;48.774;9.280;2023-05-20T13:33:31;22.40;94.00
56103;DHT22;41970;48.774;9.280;2023-05-20T13:35:57;22.40;94.50
56103;DHT22;41970;48.774;9.280;2023-05-20T13:38:23;22.50;94.10
56103;DHT22;41970;48.774;9.280;2023-05-20T13:40:48;22.60;94.30
56103;DHT22;41970;48.774;9.280;2023-05-20T13:43:15;22.70;93.80
56103;DHT22;41970;48.774;9.280;2023-05-20T13:45:41;22.90;94.00
56103;DHT22;41970;48.774;9.280;2023-05-20T13:48:07;22.70;93.70
56103;DHT22;41970;48.774;9.280;2023-05-20T13:50:33;22.70;94.10
56103;DHT22;41970;48.774;9.280;2023-05-20T13:52:59;22.80;94.20
56103;DHT22;41970;48.774;9.280;2023-05-20T13:55:24;22.90;94.10
56103;DHT22;41970;48.774;9.280;2023-05-20T13:57:50;23.00;93.90
56103;DHT22;41970;48.774;9.280;2023-05-20T14:00:18;22.90;93.80
56103;DHT22;41970;48.774;9.280;2023-05-20T14:02:44;22.90;94.20
56103;DHT22;41970;48.774;9.280;2023-05-20T14:05:11;22.90;94.20
56103;DHT22;41970;48.774;9.280;2023-05-20T14:07:37;22.70;93.90
56103;DHT22;41970;48.774;9.280;2023-05-20T14:10:04;22.80;93.90
56103;DHT22;41970;48.774;9.280;2023-05-20T14:12:30;23.10;94.20
56103;DHT22;41970;48.774;9.280;2023-05-20T14:14:56;23.00;93.00
56103;DHT22;41970;48.774;9.280;2023-05-20T14:17:22;22.90;93.00
56103;DHT22;41970;48.774;9.280;2023-05-20T14:19:48;22.90;93.40
56103;DHT22;41970;48.774;9.280;2023-05-20T14:22:13;23.10;93.30
56103;DHT22;41970;48.774;9.280;2023-05-20T14:24:40;23.00;93.20
56103;DHT22;41970;48.774;9.280;2023-05-20T14:27:06;22.90;93.10
56103;DHT22;41970;48.774;9.280;2023-05-20T14:29:31;22.70;92.60
56103;DHT22;41970;48.774;9.280;2023-05-20T14:31:57;22.70;93.30
56103;DHT22;41970;48.774;9.280;2023-05-20T14:34:23;22.80;93.20
56103;DHT22;41970;48.774;9.280;2023-05-20T14:36:49;23.00;93.50
56103;DHT22;41970;48.774;9.280;2023-05-20T14:39:14;23.10;93.40
56103;DHT22;41970;48.774;9.280;2023-05-20T14:41:41;23.00;93.50
56103;DHT22;41970;48.774;9.280;2023-05-20T14:44:07;23.20;93.60
56103;DHT22;41970;48.774;9.280;2023-05-20T14:46:32;23.00;93.00
56103;DHT22;41970;48.774;9.280;2023-05-20T14:48:59;22.80;93.00
56103;DHT22;41970;48.774;9.280;2023-05-20T14:51:25;22.60;93.10
56103;DHT22;41970;48.774;9.280;2023-05-20T14:53:50;22.50;93.40
56103;DHT22;41970;48.774;9.280;2023-05-20T14:56:16;22.50;93.30
56103;DHT22;41970;48.774;9.280;2023-05-20T14:58:42;22.40;93.50
56103;DHT22;41970;48.774;9.280;2023-05-20T15:01:08;22.50;93.90
56103;DHT22;41970;48.774;9.280;2023-05-20T15:03:34;22.50;93.90
56103;DHT22;41970;48.774;9.280;2023-05-20T15:05:59;22.70;93.80
56103;DHT22;41970;48.774;9.280;2023-05-20T15:08:25;22.90;92.90
56103;DHT22;41970;48.774;9.280;2023-05-20T15:10:51;23.00;93.50
56103;DHT22;41970;48.774;9.280;2023-05-20T15:13:17;23.00;92.50
56103;DHT22;41970;48.774;9.280;2023-05-20T15:15:43;23.10;93.00
56103;DHT22;41970;48.774;9.280;2023-05-20T15:18:08;23.20;92.80
56103;DHT22;41970;48.774;9.280;2023-05-20T15:20:35;23.30;92.80
56103;DHT22;41970;48.774;9.280;2023-05-20T15:23:01;23.40;93.10
56103;DHT22;41970;48.774;9.280;2023-05-20T15:25:28;23.30;92.70
56103;DHT22;41970;48.774;9.280;2023-05-20T15:27:54;23.20;92.60
56103;DHT22;41970;48.774;9.280;2023-05-20T15:30:20;23.20;92.20
56103;DHT22;41970;48.774;9.280;2023-05-20T15:32:47;23.30;92.50
56103;DHT22;41970;48.774;9.280;2023-05-20T15:35:12;23.40;92.70
56103;DHT22;41970;48.774;9.280;2023-05-20T15:37:38;23.20;92.70
56103;DHT22;41970;48.774;9.280;2023-05-20T15:40:04;23.10;93.10